• Join FlightAware (Why Join?)
  • Login
  • US Flag 
04:37AM EST


 

Airport Tracker/Info


-or-


 

Live Flight TrackerFlight Track Log ✈ CPT8773 ✈ 18-Jun-2013 ✈ KCPR - KCOD

Flight Track Log - Related Links

Times and Time Zones

All times are in EDT time to prevent confusion due to time zone crossing. See the CPT8773 flight status page for this flight to view local times or setup timezone preferences in your user account.

Time Position Orientation Groundspeed Altitude Reporting Facility
EDT Latitude Longitude Course Direction KTS MPH feet Rate Location/Type
09:32AM 42.9639 -106.4739 308° West 120 138 6,900  Level Salt Lake Center
09:33AM 42.9939 -106.4875 342° North 120 138 7,500 480 Climbing Salt Lake Center
09:34AM 43.0258 -106.5028 341° North 122 140 8,000 480 Climbing Salt Lake Center
09:35AM 43.0622 -106.5214 340° North 124 143 8,600 480 Climbing Salt Lake Center
09:36AM 43.1014 -106.2982 308° West  Level FlightAware Approximate
09:36AM 43.0939 -106.5364 341° North 126 145 9,100  Level Denver Center
09:37AM 43.1277 -106.3443 308° West  Level FlightAware Approximate
09:37AM 43.1328 -106.5567 339° North 130 150 9,700  Level Denver Center
09:38AM 43.1694 -106.5775 337° Northwest 129 148 10,300 540 Climbing Denver Center
09:39AM 43.2058 -106.6000 336° Northwest 129 148 10,900 540 Climbing Denver Center
09:40AM 43.2383 -106.6156 341° North 129 148 11,400 480 Climbing Denver Center
09:41AM 43.2747 -106.6353 338° Northwest 126 145 11,900 240 Climbing Denver Center
09:42AM 43.2992 -106.6694 315° West 135 155 12,000 60 Climbing Denver Center
09:43AM 43.3233 -106.7153 306° West 152 175 12,100  Climbing Denver Center
09:44AM 43.3508 -106.7714 304° West 157 181 12,000 -60 Descending Denver Center
09:45AM 43.3775 -106.8189 308° West 162 186 12,000  Level Denver Center
09:46AM 43.4011 -106.8667 304° West 159 183 12,000  Level Denver Center
09:47AM 43.4286 -106.9183 306° West 157 181 12,000  Level Denver Center
09:48AM 43.4533 -106.9658 306° West 159 183 12,000  Level Denver Center
09:49AM 43.4828 -107.0206 307° West 159 183 12,000  Level Denver Center
09:50AM 43.5064 -107.0669 305° West 157 181 12,100  Climbing Denver Center
09:51AM 43.5361 -107.1219 307° West 160 184 12,100  Level Denver Center
09:52AM 43.5597 -107.1697 304° West 159 183 12,100 -60 Level Denver Center
09:53AM 43.5803 -107.2117 304° West 162 186 12,000 -60 Descending Salt Lake Center
09:54AM 43.6044 -107.2597 305° West 161 185 12,000  Level Salt Lake Center
09:55AM 43.6336 -107.3164 305° West 161 185 12,000  Level Salt Lake Center
09:56AM 43.6592 -107.3650 306° West 163 188 12,000  Level Salt Lake Center
09:57AM 43.6878 -107.4206 305° West 161 185 12,000  Level Salt Lake Center
09:58AM 43.7131 -107.4692 306° West 161 185 12,000  Level Salt Lake Center
09:59AM 43.7394 -107.5172 307° West 163 188 12,000  Level Salt Lake Center
10:00AM 43.7681 -107.5767 304° West 164 189 12,100  Climbing Salt Lake Center
10:01AM 43.7950 -107.6272 306° West 167 192 12,000 -60 Descending Salt Lake Center
10:02AM 43.8250 -107.6844 306° West 166 191 12,000  Level Salt Lake Center
10:03AM 43.8500 -107.7328 306° West 164 189 12,000  Level Salt Lake Center
10:04AM 43.8744 -107.7831 304° West 164 189 12,000  Level Salt Lake Center
10:05AM 43.8964 -107.8442 297° West 161 185 12,100  Climbing Salt Lake Center
10:06AM 43.9136 -107.8947 295° West 156 180 12,000 -60 Descending Salt Lake Center
10:07AM 43.9358 -107.9500 299° West 151 174 12,000  Level Salt Lake Center
10:08AM 43.9617 -107.9914 311° West 150 173 12,000  Level Salt Lake Center
10:09AM 43.9858 -108.0356 307° West 150 173 12,100  Climbing Salt Lake Center
10:10AM 44.0139 -108.0875 307° West 150 173 12,000 -60 Descending Salt Lake Center
10:11AM 44.0386 -108.1311 308° West 150 173 12,000  Level Salt Lake Center
10:12AM 44.0672 -108.1847 307° West 151 174 12,000  Level Salt Lake Center
10:14AM 44.0922 -108.2300 308° West 154 177 12,000  Level Salt Lake Center
10:15AM 44.1181 -108.2753 308° West 154 177 12,000  Level Salt Lake Center
10:16AM 44.1472 -108.3300 307° West 156 180 12,000  Level Salt Lake Center
10:17AM 44.1719 -108.3758 307° West 156 180 12,000  Level Salt Lake Center
10:18AM 44.2000 -108.4278 307° West 154 177 12,000  Level Salt Lake Center
10:20AM 44.2477 -108.5263 307° West  Level FlightAware Approximate
10:27AM 44.4358 -108.8754 307° West  Level FlightAware Approximate
10:28AM 44.4625 -108.9255 307° West  Level FlightAware Approximate